Observation data for Snyder on 12/13/2019      Previous  Date       Current Mesonet Observations  Soil Data  Daily Summary Page  Observations in Plain Language
KSYS 130600Z 17005KT 05/04 A2997 RMK A01 T00520042  RH  095%=      5-min Rain = 0
KSYS 130605Z 17005KT 05/04 A2997 RMK A01 T00510041  RH  095%=      5-min Rain = 0
KSYS 130610Z 17004KT 05/04 A2997 RMK A01 T00510041  RH  095%=      5-min Rain = 0
KSYS 130615Z 18004KT 05/04 A2997 RMK A01 T00510042  RH  096%=      5-min Rain = 0
KSYS 130620Z 18004KT 05/04 A2997 RMK A01 T00510042  RH  096%=      5-min Rain = 0
KSYS 130625Z 19004KT 05/04 A2997 RMK A01 T00510042  RH  096%=      5-min Rain = 0
KSYS 130630Z 20004KT 05/04 A2997 RMK A01 T00510042  RH  096%=      5-min Rain = 0
KSYS 130635Z 20004KT 05/04 A2996 RMK A01 T00510042  RH  096%=      5-min Rain = 0
KSYS 130640Z 19003KT 05/04 A2996 RMK A01 T00520042  RH  096%=      5-min Rain = 0
KSYS 130645Z 20003KT 05/04 A2996 RMK A01 T00520042  RH  096%=      5-min Rain = 0
KSYS 130650Z 16003KT 05/04 A2996 RMK A01 T00520042  RH  095%=      5-min Rain = 0
KSYS 130655Z 17003KT 05/04 A2995 RMK A01 T00510041  RH  095%=      5-min Rain = 0
KSYS 130700Z 17003KT 05/04 A2995 RMK A01 T00510040  RH  095%=      5-min Rain = 0
KSYS 130705Z 17003KT 05/04 A2995 RMK A01 T00500040  RH  095%=      5-min Rain = 0
KSYS 130710Z 17005KT 05/04 A2994 RMK A01 T00500039  RH  095%=      5-min Rain = 0
KSYS 130715Z 18005KT 05/04 A2994 RMK A01 T00490038  RH  095%=      5-min Rain = 0
KSYS 130720Z 19005KT 05/04 A2994 RMK A01 T00480037  RH  095%=      5-min Rain = 0
KSYS 130725Z 19005KT 05/04 A2994 RMK A01 T00470036  RH  095%=      5-min Rain = 0
KSYS 130730Z 19006KT 05/04 A2994 RMK A01 T00460036  RH  095%=      5-min Rain = 0
KSYS 130735Z 19006KT 05/04 A2994 RMK A01 T00450035  RH  095%=      5-min Rain = 0
KSYS 130740Z 19006KT 04/03 A2994 RMK A01 T00440034  RH  095%=      5-min Rain = 0
KSYS 130745Z 18005KT 04/03 A2993 RMK A01 T00420033  RH  095%=      5-min Rain = 0
KSYS 130750Z 18004KT 04/03 A2993 RMK A01 T00400030  RH  095%=      5-min Rain = 0
KSYS 130755Z 18004KT 04/03 A2993 RMK A01 T00400031  RH  096%=      5-min Rain = 0
KSYS 130800Z 18004KT 04/03 A2994 RMK A01 T00400032  RH  096%=      5-min Rain = 0
KSYS 130805Z 20004KT 04/03 A2994 RMK A01 T00410033  RH  096%=      5-min Rain = 0
KSYS 130810Z 20005KT 04/04 A2994 RMK A01 T00420035  RH  097%=      5-min Rain = 0
KSYS 130815Z 20004KT 04/04 A2994 RMK A01 T00420035  RH  096%=      5-min Rain = 0
KSYS 130820Z 20003KT 04/04 A2994 RMK A01 T00430035  RH  096%=      5-min Rain = 0
KSYS 130825Z 20004KT 04/03 A2994 RMK A01 T00420034  RH  096%=      5-min Rain = 0
KSYS 130830Z 21005KT 04/03 A2995 RMK A01 T00420033  RH  096%=      5-min Rain = 0
KSYS 130835Z 21005KT 04/03 A2994 RMK A01 T00420033  RH  096%=      5-min Rain = 0
KSYS 130840Z 21005KT 04/03 A2993 RMK A01 T00410033  RH  096%=      5-min Rain = 0
KSYS 130845Z 21006KT 04/03 A2992 RMK A01 T00410032  RH  096%=      5-min Rain = 0
KSYS 130850Z 21006KT 04/03 A2992 RMK A01 T00420032  RH  095%=      5-min Rain = 0
KSYS 130855Z 22005KT 04/03 A2992 RMK A01 T00430033  RH  095%=      5-min Rain = 0
KSYS 130900Z 22006KT 04/03 A2992 RMK A01 T00430032  RH  094%=      5-min Rain = 0
KSYS 130905Z 23005KT 04/03 A2992 RMK A01 T00440032  RH  094%=      5-min Rain = 0
KSYS 130910Z 24006KT 04/03 A2992 RMK A01 T00440031  RH  093%=      5-min Rain = 0
KSYS 130915Z 23006KT 04/03 A2992 RMK A01 T00440029  RH  092%=      5-min Rain = 0
KSYS 130920Z 23006KT 04/03 A2992 RMK A01 T00430028  RH  092%=      5-min Rain = 0
KSYS 130925Z 24006KT 04/03 A2992 RMK A01 T00430029  RH  092%=      5-min Rain = 0
KSYS 130930Z 24007KT 04/03 A2992 RMK A01 T00430028  RH  092%=      5-min Rain = 0
KSYS 130935Z 22006KT 04/03 A2992 RMK A01 T00420027  RH  091%=      5-min Rain = 0
KSYS 130940Z 22005KT 04/03 A2992 RMK A01 T00410027  RH  092%=      5-min Rain = 0
KSYS 130945Z 22005KT 04/03 A2992 RMK A01 T00410026  RH  092%=      5-min Rain = 0
KSYS 130950Z 23005KT 04/03 A2992 RMK A01 T00410026  RH  092%=      5-min Rain = 0
KSYS 130955Z 23006KT 04/03 A2992 RMK A01 T00400025  RH  092%=      5-min Rain = 0
KSYS 131000Z 25007KT 04/03 A2992 RMK A01 T00410026  RH  091%=      5-min Rain = 0
KSYS 131005Z 27006KT 05/03 A2992 RMK A01 T00450026  RH  089%=      5-min Rain = 0
KSYS 131010Z 27007KT 05/02 A2992 RMK A01 T00460024  RH  087%=      5-min Rain = 0
KSYS 131015Z 26006KT 05/02 A2991 RMK A01 T00470022  RH  085%=      5-min Rain = 0
KSYS 131020Z 26005KT 05/02 A2992 RMK A01 T00460021  RH  085%=      5-min Rain = 0
KSYS 131025Z 26004KT 05/02 A2991 RMK A01 T00450018  RH  084%=      5-min Rain = 0
KSYS 131030Z 25005KT 04/02 A2991 RMK A01 T00440018  RH  084%=      5-min Rain = 0
KSYS 131035Z 25005KT 04/02 A2991 RMK A01 T00440017  RH  084%=      5-min Rain = 0
KSYS 131040Z 26004KT 04/02 A2991 RMK A01 T00430017  RH  084%=      5-min Rain = 0
KSYS 131045Z 27004KT 04/02 A2992 RMK A01 T00420016  RH  084%=      5-min Rain = 0
KSYS 131050Z 28004KT 04/01 A2992 RMK A01 T00400014  RH  085%=      5-min Rain = 0
KSYS 131055Z 30003KT 04/01 A2992 RMK A01 T00380014  RH  085%=      5-min Rain = 0
KSYS 131100Z 31004KT 04/01 A2991 RMK A01 T00370014  RH  086%=      5-min Rain = 0
KSYS 131105Z 31004KT 04/01 A2991 RMK A01 T00390014  RH  085%=      5-min Rain = 0
KSYS 131110Z 31004KT 04/01 A2991 RMK A01 T00390012  RH  084%=      5-min Rain = 0
KSYS 131115Z 32004KT 04/01 A2991 RMK A01 T00370011  RH  084%=      5-min Rain = 0
KSYS 131120Z 32004KT 04/01 A2991 RMK A01 T00350011  RH  085%=      5-min Rain = 0
KSYS 131125Z 31005KT 03/01 A2991 RMK A01 T00340011  RH  086%=      5-min Rain = 0
KSYS 131130Z 31005KT 04/01 A2991 RMK A01 T00350012  RH  086%=      5-min Rain = 0
KSYS 131135Z 32005KT 04/01 A2991 RMK A01 T00370012  RH  085%=      5-min Rain = 0
KSYS 131140Z 32005KT 04/01 A2991 RMK A01 T00380011  RH  083%=      5-min Rain = 0
KSYS 131145Z 32005KT 04/01 A2991 RMK A01 T00380010  RH  083%=      5-min Rain = 0
KSYS 131150Z 31006KT 04/01 A2992 RMK A01 T00410008  RH  080%=      5-min Rain = 0
KSYS 131155Z 31006KT 04/01 A2991 RMK A01 T00440006  RH  077%=      5-min Rain = 0
KSYS 131200Z 30006KT 05/01 A2992 RMK A01 T00450005  RH  076%=      5-min Rain = 0
KSYS 131205Z 31006KT 05/01 A2992 RMK A01 T00460005  RH  076%=      5-min Rain = 0
KSYS 131210Z 30006KT 05/01 A2992 RMK A01 T00450005  RH  076%=      5-min Rain = 0
KSYS 131215Z 30006KT 04/01 A2992 RMK A01 T00420005  RH  078%=      5-min Rain = 0
KSYS 131220Z 29005KT 04/00 A2992 RMK A01 T00420004  RH  078%=      5-min Rain = 0
KSYS 131225Z 29004KT 04/00 A2992 RMK A01 T00420004  RH  077%=      5-min Rain = 0
KSYS 131230Z 29004KT 04/00 A2992 RMK A01 T00430003  RH  076%=      5-min Rain = 0
KSYS 131235Z 28003KT 04/00 A2992 RMK A01 T00440002  RH  075%=      5-min Rain = 0
KSYS 131240Z 28003KT 05/00 A2992 RMK A01 T00450001  RH  074%=      5-min Rain = 0
KSYS 131245Z 27003KT 05/00 A2991 RMK A01 T004700-0  RH  072%=      5-min Rain = 0
KSYS 131250Z 27003KT 05/M00 A2991 RMK A01 T00471001  RH  072%=      5-min Rain = 0
KSYS 131255Z 28002KT 05/M00 A2992 RMK A01 T00461002  RH  072%=      5-min Rain = 0
KSYS 131300Z 28002KT 05/M00 A2992 RMK A01 T00461003  RH  071%=      5-min Rain = 0
KSYS 131305Z 28003KT 05/M00 A2992 RMK A01 T00461004  RH  071%=      5-min Rain = 0
KSYS 131310Z 29004KT 05/M00 A2992 RMK A01 T00461004  RH  071%=      5-min Rain = 0
KSYS 131315Z 29004KT 04/M00 A2993 RMK A01 T00441004  RH  072%=      5-min Rain = 0
KSYS 131320Z 29005KT 04/M00 A2993 RMK A01 T00431004  RH  072%=      5-min Rain = 0
KSYS 131325Z 28006KT 04/M00 A2993 RMK A01 T00431004  RH  072%=      5-min Rain = 0
KSYS 131330Z 28005KT 05/M01 A2993 RMK A01 T00471005  RH  070%=      5-min Rain = 0
KSYS 131335Z 29004KT 05/M01 A2993 RMK A01 T00491006  RH  069%=      5-min Rain = 0
KSYS 131340Z 31002KT 05/M01 A2993 RMK A01 T00491006  RH  068%=      5-min Rain = 0
KSYS 131345Z 31003KT 05/M01 A2992 RMK A01 T00491007  RH  068%=      5-min Rain = 0
KSYS 131350Z 28003KT 05/M01 A2992 RMK A01 T00481007  RH  068%=      5-min Rain = 0
KSYS 131355Z 27003KT 05/M01 A2992 RMK A01 T00461006  RH  070%=      5-min Rain = 0
KSYS 131400Z 21002KT 04/M01 A2993 RMK A01 T00401005  RH  074%=      5-min Rain = 0
KSYS 131405Z 18002KT 03/M01 A2993 RMK A01 T00341005  RH  077%=      5-min Rain = 0
KSYS 131410Z 21002KT 03/M00 A2993 RMK A01 T00291004  RH  080%=      5-min Rain = 0
KSYS 131415Z 27003KT 03/M00 A2994 RMK A01 T00291001  RH  082%=      5-min Rain = 0
KSYS 131420Z 27004KT 04/00 A2994 RMK A01 T00400002  RH  077%=      5-min Rain = 0
KSYS 131425Z 27004KT 05/00 A2994 RMK A01 T00520002  RH  071%=      5-min Rain = 0
KSYS 131430Z 28003KT 06/00 A2994 RMK A01 T00600003  RH  067%=      5-min Rain = 0
KSYS 131435Z 30003KT 07/00 A2994 RMK A01 T00650003  RH  065%=      5-min Rain = 0
KSYS 131440Z 32003KT 07/00 A2995 RMK A01 T00700002  RH  063%=      5-min Rain = 0
KSYS 131445Z 32003KT 07/00 A2995 RMK A01 T00720001  RH  061%=      5-min Rain = 0
KSYS 131450Z 32004KT 07/00 A2995 RMK A01 T00740001  RH  060%=      5-min Rain = 0
KSYS 131455Z 31005KT 08/00 A2995 RMK A01 T00780004  RH  060%=      5-min Rain = 0
KSYS 131500Z 30005KT 08/01 A2995 RMK A01 T00810011  RH  062%=      5-min Rain = 0
KSYS 131505Z 29005KT 09/01 A2995 RMK A01 T00850014  RH  062%=      5-min Rain = 0
KSYS 131510Z 30004KT 09/02 A2995 RMK A01 T00900015  RH  060%=      5-min Rain = 0
KSYS 131515Z 29004KT 09/02 A2995 RMK A01 T00940016  RH  059%=      5-min Rain = 0
KSYS 131520Z 30004KT 10/02 A2996 RMK A01 T00970015  RH  058%=      5-min Rain = 0
KSYS 131525Z 31004KT 10/02 A2995 RMK A01 T00990021  RH  059%=      5-min Rain = 0
KSYS 131530Z 31004KT 10/02 A2995 RMK A01 T01010023  RH  059%=      5-min Rain = 0
KSYS 131535Z 32003KT 11/02 A2995 RMK A01 T01050024  RH  058%=      5-min Rain = 0
KSYS 131540Z 31004G9KT 11/03 A2996 RMK A01 T01100028  RH  058%=      5-min Rain = 0
KSYS 131545Z 30006KT 12/03 A2995 RMK A01 T01170027  RH  055%=      5-min Rain = 0
KSYS 131550Z 30005KT 12/02 A2995 RMK A01 T01240023  RH  051%=      5-min Rain = 0
KSYS 131555Z 31005KT 13/02 A2995 RMK A01 T01270021  RH  049%=      5-min Rain = 0
KSYS 131600Z 31005KT 13/02 A2996 RMK A01 T01310020  RH  048%=      5-min Rain = 0
KSYS 131605Z 30004KT 13/02 A2996 RMK A01 T01340021  RH  047%=      5-min Rain = 0
KSYS 131610Z 29003KT 14/02 A2996 RMK A01 T01380018  RH  045%=      5-min Rain = 0
KSYS 131615Z 30004KT 14/02 A2995 RMK A01 T01420019  RH  044%=      5-min Rain = 0
KSYS 131620Z 30004KT 15/02 A2995 RMK A01 T01450016  RH  042%=      5-min Rain = 0
KSYS 131625Z 31004KT 15/02 A2995 RMK A01 T01480015  RH  041%=      5-min Rain = 0
KSYS 131630Z 30004KT 15/01 A2995 RMK A01 T01500014  RH  040%=      5-min Rain = 0
KSYS 131635Z 31004KT 15/01 A2996 RMK A01 T01520011  RH  039%=      5-min Rain = 0
KSYS 131640Z 30002KT 16/02 A2996 RMK A01 T01550015  RH  039%=      5-min Rain = 0
KSYS 131645Z 29004KT 16/01 A2995 RMK A01 T01590013  RH  038%=      5-min Rain = 0
KSYS 131650Z 28004KT 16/01 A2995 RMK A01 T01610011  RH  037%=      5-min Rain = 0
KSYS 131655Z 30005KT 16/01 A2994 RMK A01 T01640012  RH  036%=      5-min Rain = 0
KSYS 131700Z 29006KT 17/01 A2994 RMK A01 T01660010  RH  035%=      5-min Rain = 0
KSYS 131705Z 29006KT 17/01 A2994 RMK A01 T01670009  RH  035%=      5-min Rain = 0
KSYS 131710Z 29007KT 17/01 A2994 RMK A01 T01700009  RH  034%=      5-min Rain = 0
KSYS 131715Z 29006KT 17/01 A2994 RMK A01 T01710008  RH  034%=      5-min Rain = 0
KSYS 131720Z 30006KT 17/01 A2994 RMK A01 T01720009  RH  033%=      5-min Rain = 0
KSYS 131725Z 28004KT 18/01 A2993 RMK A01 T01770010  RH  033%=      5-min Rain = 0
KSYS 131730Z 29006KT 18/01 A2992 RMK A01 T01780008  RH  032%=      5-min Rain = 0
KSYS 131735Z 29008KT 18/01 A2993 RMK A01 T01830009  RH  031%=      5-min Rain = 0
KSYS 131740Z 27009KT 18/01 A2993 RMK A01 T01840007  RH  031%=      5-min Rain = 0
KSYS 131745Z 28010G15KT 18/01 A2992 RMK A01 T01840007  RH  031%=      5-min Rain = 0
KSYS 131750Z 29012KT 19/01 A2992 RMK A01 T01860008  RH  031%=      5-min Rain = 0
KSYS 131755Z 29012KT 19/01 A2992 RMK A01 T01890009  RH  030%=      5-min Rain = 0
KSYS 131800Z 28010KT 19/01 A2992 RMK A01 T01910011  RH  031%=      5-min Rain = 0
KSYS 131805Z 28010G15KT 19/01 A2992 RMK A01 T01930012  RH  030%=      5-min Rain = 0
KSYS 131810Z 29012G17KT 19/01 A2991 RMK A01 T01920009  RH  030%=      5-min Rain = 0
KSYS 131815Z 29014KT 19/01 A2991 RMK A01 T01940010  RH  030%=      5-min Rain = 0
KSYS 131820Z 29014KT 20/01 A2991 RMK A01 T01950010  RH  029%=      5-min Rain = 0
KSYS 131825Z 30014KT 20/01 ANAN RMK A01 T01970010  RH  029%=      5-min Rain = 0
KSYS 131830Z 29011G16KT 20/01 A299 RMK A01 T01990010  RH  029%=      5-min Rain = 0
KSYS 131835Z 30014KT 20/01 A2989 RMK A01 T02010008  RH  028%=      5-min Rain = 0
KSYS 131840Z 30013KT 20/01 A2989 RMK A01 T02000009  RH  028%=      5-min Rain = 0
KSYS 131845Z 30010KT 20/01 A2989 RMK A01 T02010012  RH  029%=      5-min Rain = 0
KSYS 131850Z 30011G17KT 20/01 A2988 RMK A01 T02040011  RH  028%=      5-min Rain = 0
KSYS 131855Z 30014G19KT 20/01 A2988 RMK A01 T02040010  RH  028%=      5-min Rain = 0
KSYS 131900Z 30013G20KT 21/01 A2988 RMK A01 T02050012  RH  028%=      5-min Rain = 0
KSYS 131905Z 30011G16KT 21/01 A2988 RMK A01 T02080014  RH  028%=      5-min Rain = 0
KSYS 131910Z 30015G20KT 21/01 A2987 RMK A01 T02100012  RH  027%=      5-min Rain = 0
KSYS 131915Z 30013KT 21/01 A2987 RMK A01 T02100012  RH  027%=      5-min Rain = 0
KSYS 131920Z 29010KT 21/01 A2986 RMK A01 T02090014  RH  028%=      5-min Rain = 0
KSYS 131925Z 29011G16KT 21/02 A2985 RMK A01 T02110015  RH  028%=      5-min Rain = 0
KSYS 131930Z 29010KT 21/01 A2984 RMK A01 T02130014  RH  027%=      5-min Rain = 0
KSYS 131935Z 31011G16KT 22/02 A2984 RMK A01 T02160015  RH  027%=      5-min Rain = 0
KSYS 131940Z 31014KT 22/01 A2984 RMK A01 T02210014  RH  026%=      5-min Rain = 0
KSYS 131945Z 29014KT 22/01 A2984 RMK A01 T02200013  RH  026%=      5-min Rain = 0
KSYS 131950Z 30012G17KT 22/01 A2984 RMK A01 T02190013  RH  026%=      5-min Rain = 0
KSYS 131955Z 31014G19KT 22/01 A2984 RMK A01 T02160011  RH  026%=      5-min Rain = 0
KSYS 132000Z 31014G19KT 22/01 A2984 RMK A01 T02150011  RH  026%=      5-min Rain = 0
KSYS 132005Z 30014G19KT 22/01 A2984 RMK A01 T02160011  RH  026%=      5-min Rain = 0
KSYS 132010Z 29011G16KT 22/01 A2984 RMK A01 T02170011  RH  026%=      5-min Rain = 0
KSYS 132015Z 31013KT 22/01 A2984 RMK A01 T02180012  RH  026%=      5-min Rain = 0
KSYS 132020Z 32012G17KT 22/01 A2984 RMK A01 T02190013  RH  026%=      5-min Rain = 0
KSYS 132025Z 32012KT 22/01 A2984 RMK A01 T02210011  RH  025%=      5-min Rain = 0
KSYS 132030Z 32014G21KT 22/01 A2984 RMK A01 T02210009  RH  025%=      5-min Rain = 0
KSYS 132035Z 32014G20KT 22/01 A2983 RMK A01 T02180005  RH  025%=      5-min Rain = 0
KSYS 132040Z 32012G17KT 22/01 A2983 RMK A01 T02170007  RH  025%=      5-min Rain = 0
KSYS 132045Z 32015G20KT 22/01 A2983 RMK A01 T02180006  RH  025%=      5-min Rain = 0
KSYS 132050Z 30018G25KT 22/M00 A2983 RMK A01 T02181004  RH  023%=      5-min Rain = 0
KSYS 132055Z 31018G23KT 22/00 A2983 RMK A01 T02180003  RH  024%=      5-min Rain = 0
KSYS 132100Z 33019KT 22/01 A2984 RMK A01 T02160006  RH  025%=      5-min Rain = 0
KSYS 132105Z 32015KT 21/01 A2984 RMK A01 T02130005  RH  025%=      5-min Rain = 0
KSYS 132110Z 31015G20KT 21/00 A2984 RMK A01 T02120004  RH  025%=      5-min Rain = 0
KSYS 132115Z 31015KT 21/00 A2984 RMK A01 T02110003  RH  025%=      5-min Rain = 0
KSYS 132120Z 31017G25KT 21/M00 A2984 RMK A01 T02121002  RH  024%=      5-min Rain = 0
KSYS 132125Z 31018G24KT 21/M01 A2984 RMK A01 T02121008  RH  023%=      5-min Rain = 0
KSYS 132130Z 31017G23KT 21/M01 A2984 RMK A01 T02121006  RH  023%=      5-min Rain = 0
KSYS 132135Z 32018KT 21/M01 A2984 RMK A01 T02121009  RH  023%=      5-min Rain = 0
KSYS 132140Z 31017G22KT 21/M01 A2984 RMK A01 T02121007  RH  023%=      5-min Rain = 0
KSYS 132145Z 31016G22KT 21/M01 A2984 RMK A01 T02141006  RH  023%=      5-min Rain = 0
KSYS 132150Z 31018G23KT 22/M01 A2984 RMK A01 T02151008  RH  023%=      5-min Rain = 0
KSYS 132155Z 32018G24KT 21/M01 A2984 RMK A01 T02141009  RH  023%=      5-min Rain = 0
KSYS 132200Z 30018G24KT 21/M01 A2984 RMK A01 T02111009  RH  023%=      5-min Rain = 0
KSYS 132205Z 31017G22KT 21/M01 A2985 RMK A01 T02131007  RH  023%=      5-min Rain = 0
KSYS 132210Z 32016G22KT 21/M00 A2985 RMK A01 T02141004  RH  023%=      5-min Rain = 0
KSYS 132215Z 32017KT 21/M01 A2985 RMK A01 T02101007  RH  024%=      5-min Rain = 0
KSYS 132220Z 32016KT 20/M00 A2985 RMK A01 T02041004  RH  025%=      5-min Rain = 0
KSYS 132225Z 32015G21KT 20/M00 A2985 RMK A01 T02011004  RH  025%=      5-min Rain = 0
KSYS 132230Z 32013G18KT 20/M00 A2985 RMK A01 T02001003  RH  026%=      5-min Rain = 0
KSYS 132235Z 31014KT 20/M00 A2985 RMK A01 T01981003  RH  026%=      5-min Rain = 0
KSYS 132240Z 32013G18KT 20/M00 A2985 RMK A01 T01961003  RH  027%=      5-min Rain = 0
KSYS 132245Z 32013G18KT 20/M00 A2985 RMK A01 T01951003  RH  027%=      5-min Rain = 0
KSYS 132250Z 32011KT 19/M00 A2985 RMK A01 T01931002  RH  027%=      5-min Rain = 0
KSYS 132255Z 32010KT 19/00 A2985 RMK A01 T019100-0  RH  028%=      5-min Rain = 0
KSYS 132300Z 31008KT 19/00 A2985 RMK A01 T01860001  RH  029%=      5-min Rain = 0
KSYS 132305Z 32007KT 18/00 A2985 RMK A01 T01800001  RH  030%=      5-min Rain = 0
KSYS 132310Z 31006KT 18/00 A2985 RMK A01 T01760003  RH  031%=      5-min Rain = 0
KSYS 132315Z 30005KT 18/00 A2985 RMK A01 T01750003  RH  032%=      5-min Rain = 0
KSYS 132320Z 30004KT 17/00 A2985 RMK A01 T01740003  RH  032%=      5-min Rain = 0
KSYS 132325Z 29004KT 17/00 A2986 RMK A01 T01730002  RH  032%=      5-min Rain = 0
KSYS 132330Z 27004KT 17/00 A2986 RMK A01 T01730001  RH  032%=      5-min Rain = 0
KSYS 132335Z 25004KT 17/00 A2986 RMK A01 T017200-0  RH  031%=      5-min Rain = 0
KSYS 132340Z 23004KT 17/M00 A2986 RMK A01 T01701001  RH  032%=      5-min Rain = 0
KSYS 132345Z 24004KT 17/M00 A2985 RMK A01 T01681002  RH  032%=      5-min Rain = 0
KSYS 132350Z 25005KT 17/M00 A2985 RMK A01 T01671003  RH  032%=      5-min Rain = 0
KSYS 132355Z 24004KT 17/M00 A2986 RMK A01 T01681003  RH  032%=      5-min Rain = 0
KSYS 140000Z 24003KT 17/M00 A2986 RMK A01 T01681004  RH  032%=      5-min Rain = 0
KSYS 140005Z 25003KT 17/M00 A2986 RMK A01 T01671004  RH  032%=      5-min Rain = 0
KSYS 140010Z 23004KT 17/M00 A2986 RMK A01 T01661004  RH  032%=      5-min Rain = 0
KSYS 140015Z 23004KT 16/M00 A2986 RMK A01 T01641004  RH  032%=      5-min Rain = 0
KSYS 140020Z 24004KT 16/M00 A2985 RMK A01 T01621004  RH  033%=      5-min Rain = 0
KSYS 140025Z 25004KT 16/M00 A2986 RMK A01 T01601004  RH  033%=      5-min Rain = 0
KSYS 140030Z 25005KT 16/M00 A2986 RMK A01 T01611004  RH  033%=      5-min Rain = 0
KSYS 140035Z 26005KT 16/M00 A2987 RMK A01 T01611004  RH  033%=      5-min Rain = 0
KSYS 140040Z 26004KT 16/M00 A2987 RMK A01 T01601004  RH  033%=      5-min Rain = 0
KSYS 140045Z 27005KT 16/M00 A2987 RMK A01 T01581003  RH  034%=      5-min Rain = 0
KSYS 140050Z 28005KT 16/M00 A2987 RMK A01 T01561002  RH  034%=      5-min Rain = 0
KSYS 140055Z 28005KT 15/M00 A2987 RMK A01 T01521002  RH  035%=      5-min Rain = 0
KSYS 140100Z 29005KT 15/M00 A2987 RMK A01 T01481002  RH  036%=      5-min Rain = 0
KSYS 140105Z 28005KT 15/M00 A2987 RMK A01 T01471003  RH  036%=      5-min Rain = 0
KSYS 140110Z 28004KT 15/M00 A2987 RMK A01 T01461003  RH  036%=      5-min Rain = 0
KSYS 140115Z 29004KT 15/M00 A2987 RMK A01 T01461003  RH  036%=      5-min Rain = 0
KSYS 140120Z 31004KT 14/M00 A2987 RMK A01 T01441002  RH  037%=      5-min Rain = 0
KSYS 140125Z 31004KT 14/M00 A2987 RMK A01 T01401001  RH  038%=      5-min Rain = 0
KSYS 140130Z 31004KT 14/M00 A2987 RMK A01 T01381002  RH  039%=      5-min Rain = 0
KSYS 140135Z 30004KT 14/M00 A2987 RMK A01 T01361001  RH  039%=      5-min Rain = 0
KSYS 140140Z 30004KT 14/M00 A2987 RMK A01 T01361003  RH  039%=      5-min Rain = 0
KSYS 140145Z 31004KT 14/M00 A2987 RMK A01 T01351002  RH  039%=      5-min Rain = 0
KSYS 140150Z 32003KT 13/M00 A2987 RMK A01 T01331001  RH  040%=      5-min Rain = 0
KSYS 140155Z 31003KT 13/M00 A2987 RMK A01 T01311001  RH  041%=      5-min Rain = 0
KSYS 140200Z 28003KT 13/M00 A2987 RMK A01 T01311001  RH  041%=      5-min Rain = 0
KSYS 140205Z 18002KT 13/00 A2988 RMK A01 T01280001  RH  042%=      5-min Rain = 0
KSYS 140210Z 22001KT 12/00 A2988 RMK A01 T01210002  RH  044%=      5-min Rain = 0
KSYS 140215Z 26003KT 12/00 A2988 RMK A01 T01210000  RH  044%=      5-min Rain = 0
KSYS 140220Z 28003KT 13/M00 A2988 RMK A01 T01271002  RH  041%=      5-min Rain = 0
KSYS 140225Z 29004KT 13/M00 A2989 RMK A01 T01321003  RH  040%=      5-min Rain = 0
KSYS 140230Z 29004KT 13/M00 A2989 RMK A01 T01321002  RH  040%=      5-min Rain = 0
KSYS 140235Z 29004KT 13/M00 ANAN RMK A01 T01291001  RH  041%=      5-min Rain = 0
KSYS 140240Z 28005KT 13/M00 A2989 RMK A01 T01271001  RH  042%=      5-min Rain = 0
KSYS 140245Z 27004KT 13/M00 A2989 RMK A01 T01261001  RH  042%=      5-min Rain = 0
KSYS 140250Z 25005KT 13/M00 A2989 RMK A01 T01291002  RH  041%=      5-min Rain = 0
KSYS 140255Z 18004KT 13/M00 A2989 RMK A01 T01261001  RH  042%=      5-min Rain = 0
KSYS 140300Z 19004KT 12/M00 A2989 RMK A01 T01211001  RH  044%=      5-min Rain = 0
KSYS 140305Z 21004KT 12/M00 A2989 RMK A01 T01241002  RH  042%=      5-min Rain = 0
KSYS 140310Z 21005KT 12/M00 A2989 RMK A01 T01241002  RH  042%=      5-min Rain = 0
KSYS 140315Z 21006KT 12/00 A2989 RMK A01 T01210001  RH  044%=      5-min Rain = 0
KSYS 140320Z 22006KT 12/00 A2989 RMK A01 T01180002  RH  045%=      5-min Rain = 0
KSYS 140325Z 23007KT 12/00 A2989 RMK A01 T01190002  RH  045%=      5-min Rain = 0
KSYS 140330Z 24008KT 12/00 A2989 RMK A01 T01200002  RH  045%=      5-min Rain = 0
KSYS 140335Z 25008KT 12/00 A2988 RMK A01 T01220001  RH  044%=      5-min Rain = 0
KSYS 140340Z 26008KT 13/M00 A2988 RMK A01 T01251001  RH  042%=      5-min Rain = 0
KSYS 140345Z 27008KT 13/M00 A2988 RMK A01 T01261002  RH  042%=      5-min Rain = 0
KSYS 140350Z 28006KT 13/M00 A2988 RMK A01 T01251002  RH  042%=      5-min Rain = 0
KSYS 140355Z 30004KT 12/00 A2988 RMK A01 T01200001  RH  044%=      5-min Rain = 0
KSYS 140400Z 30005KT 11/00 A2988 RMK A01 T01130001  RH  047%=      5-min Rain = 0
KSYS 140405Z 30005KT 11/00 A2988 RMK A01 T01080001  RH  048%=      5-min Rain = 0
KSYS 140410Z 29006KT 11/00 A2988 RMK A01 T01060000  RH  049%=      5-min Rain = 0
KSYS 140415Z 30006KT 11/00 A2988 RMK A01 T01050000  RH  049%=      5-min Rain = 0
KSYS 140420Z 32006KT 10/00 A2988 RMK A01 T01010002  RH  051%=      5-min Rain = 0
KSYS 140425Z 32007KT 10/00 A2989 RMK A01 T00950002  RH  053%=      5-min Rain = 0
KSYS 140430Z 33007KT 09/00 A2989 RMK A01 T00940002  RH  054%=      5-min Rain = 0
KSYS 140435Z 35008KT 09/00 A299 RMK A01 T00910004  RH  055%=      5-min Rain = 0
KSYS 140440Z 33008KT 09/00 A299 RMK A01 T00890004  RH  056%=      5-min Rain = 0
KSYS 140445Z 34008KT 09/00 A299 RMK A01 T00880004  RH  056%=      5-min Rain = 0
KSYS 140450Z 34008KT 09/00 A299 RMK A01 T00880003  RH  056%=      5-min Rain = 0
KSYS 140455Z 33007KT 09/00 A299 RMK A01 T00900001  RH  055%=      5-min Rain = 0
KSYS 140500Z 33006KT 09/00 A299 RMK A01 T00900000  RH  054%=      5-min Rain = 0
KSYS 140505Z 32005KT 09/M00 A299 RMK A01 T00901001  RH  054%=      5-min Rain = 0
KSYS 140510Z 29003KT 09/M00 A299 RMK A01 T00901001  RH  054%=      5-min Rain = 0
KSYS 140515Z 30004KT 09/00 A299 RMK A01 T00890001  RH  055%=      5-min Rain = 0
KSYS 140520Z 31004KT 09/00 A299 RMK A01 T00870001  RH  055%=      5-min Rain = 0
KSYS 140525Z 30004KT 09/00 A2989 RMK A01 T00850000  RH  056%=      5-min Rain = 0
KSYS 140530Z 29005KT 09/M00 A2989 RMK A01 T00891003  RH  053%=      5-min Rain = 0
KSYS 140535Z 29006KT 10/M00 A2988 RMK A01 T00951004  RH  051%=      5-min Rain = 0
KSYS 140540Z 29005KT 10/M00 A2988 RMK A01 T00981004  RH  049%=      5-min Rain = 0
KSYS 140545Z 29004KT 10/M00 A2988 RMK A01 T00981004  RH  049%=      5-min Rain = 0
KSYS 140550Z 28004KT 10/M00 A2988 RMK A01 T00971004  RH  050%=      5-min Rain = 0
KSYS 140555Z 28006KT 09/M00 A2989 RMK A01 T00931004  RH  051%=      5-min Rain = 0

Page generated in 0.0164 seconds.